Time;durP1;ratioP1;P1;durP2;ratioP2;P2;SDS_P1;SDS_P2;PMS_P1;PMS_P2;Temp;Humidity;BMP_temperature;BMP_pressure;BME280_temperature;BME280_humidity;BME280_pressure;Samples;Min_cycle;Max_cycle;Signal;HPM_P1;HPM_P2
2022/12/10 00:01:18;;;;;;;19.23;12.53;;;-0.50;99.90;;;;;;5056427;28;20403;-78
2022/12/10 00:03:45;;;;;;;20.57;12.23;;;-0.60;99.90;;;;;;5056837;28;20423;-79
2022/12/10 00:06:13;;;;;;;22.10;12.40;;;-0.60;99.90;;;;;;5056509;28;20401;-78
2022/12/10 00:08:39;;;;;;;20.90;12.17;;;-0.60;99.90;;;;;;5057089;28;20425;-79
2022/12/10 00:11:06;;;;;;;23.23;11.70;;;-0.70;99.90;;;;;;5057368;28;20406;-78
2022/12/10 00:13:33;;;;;;;27.40;12.10;;;-0.70;99.90;;;;;;5055218;28;20440;-78
2022/12/10 00:16:00;;;;;;;17.77;11.27;;;-0.80;99.90;;;;;;5054829;28;20947;-78
2022/12/10 00:18:26;;;;;;;19.53;11.93;;;-0.80;99.90;;;;;;5055683;28;20445;-78
2022/12/10 00:20:51;;;;;;;21.47;12.90;;;-0.80;99.90;;;;;;5056450;28;20405;-78
2022/12/10 00:23:17;;;;;;;23.33;14.27;;;-0.80;99.90;;;;;;5055716;28;20187;-78
2022/12/10 00:25:42;;;;;;;18.13;11.17;;;-0.80;99.90;;;;;;5054141;28;20171;-76
2022/12/10 00:28:08;;;;;;;19.33;12.37;;;-0.90;99.90;;;;;;5053847;28;20232;-77
2022/12/10 00:30:34;;;;;;;24.80;11.63;;;-0.90;99.90;;;;;;5053677;28;20529;-77
2022/12/10 00:32:59;;;;;;;20.37;12.17;;;-0.90;99.90;;;;;;5055082;28;20274;-79
2022/12/10 00:35:25;;;;;;;21.03;12.90;;;-0.90;99.90;;;;;;5054385;28;20171;-78
2022/12/10 00:37:50;;;;;;;26.53;13.00;;;-0.90;99.90;;;;;;5057022;28;20167;-78
2022/12/10 00:40:16;;;;;;;31.30;14.00;;;-0.90;99.90;;;;;;5055969;28;20277;-78
2022/12/10 00:42:41;;;;;;;35.03;15.47;;;-0.90;99.90;;;;;;5053823;28;20171;-78
2022/12/10 00:45:07;;;;;;;27.13;15.03;;;-0.90;99.90;;;;;;5054591;28;20178;-78
2022/12/10 00:47:33;;;;;;;23.07;13.13;;;-0.90;99.90;;;;;;5054949;28;20175;-78
2022/12/10 00:49:58;;;;;;;26.40;13.80;;;-0.90;99.90;;;;;;5055674;28;20202;-78
2022/12/10 00:52:24;;;;;;;24.70;11.87;;;-0.90;99.90;;;;;;5055435;28;20166;-78
2022/12/10 00:54:50;;;;;;;26.40;11.97;;;-1.00;99.90;;;;;;5053778;28;20328;-78
2022/12/10 00:57:16;;;;;;;24.47;11.97;;;-1.00;99.90;;;;;;5053455;28;20171;-78
2022/12/10 00:59:41;;;;;;;21.57;11.00;;;-1.00;99.90;;;;;;5055554;28;20564;-78
2022/12/10 01:02:07;;;;;;;25.47;12.03;;;-1.00;99.90;;;;;;5055131;28;20402;-78
2022/12/10 01:04:32;;;;;;;17.97;10.47;;;-1.10;99.90;;;;;;5053240;28;20194;-78
2022/12/10 01:06:59;;;;;;;19.73;13.03;;;-1.00;99.90;;;;;;5055038;28;20182;-78
2022/12/10 01:09:27;;;;;;;26.47;12.70;;;-1.10;99.90;;;;;;5055079;28;20305;-78
2022/12/10 01:11:54;;;;;;;22.33;11.67;;;-1.10;99.90;;;;;;5055110;28;20401;-78
2022/12/10 01:14:27;;;;;;;27.63;13.10;;;-1.10;99.90;;;;;;5054408;28;20425;-78
2022/12/10 01:16:55;;;;;;;21.63;12.77;;;-1.10;99.90;;;;;;5053716;28;20418;-78
2022/12/10 01:19:21;;;;;;;22.57;11.33;;;-1.10;99.90;;;;;;5055085;28;20457;-78
2022/12/10 01:21:50;;;;;;;27.27;12.07;;;-1.10;99.90;;;;;;5055040;28;20414;-78
2022/12/10 01:24:16;;;;;;;27.50;13.00;;;-1.10;99.90;;;;;;5054470;28;20274;-78
2022/12/10 01:26:41;;;;;;;29.23;14.83;;;-1.20;99.90;;;;;;5053399;28;20932;-78
2022/12/10 01:29:07;;;;;;;38.20;16.73;;;-1.20;99.90;;;;;;5053387;28;20210;-78
2022/12/10 01:31:35;;;;;;;27.87;12.60;;;-1.20;99.90;;;;;;5054932;28;20204;-78
2022/12/10 01:34:03;;;;;;;22.57;13.73;;;-1.20;99.90;;;;;;5054960;28;20182;-78
2022/12/10 01:36:31;;;;;;;24.57;12.03;;;-1.20;99.90;;;;;;5053923;28;20926;-78
2022/12/10 01:38:59;;;;;;;19.40;10.13;;;-1.30;99.90;;;;;;5054471;28;20464;-78
2022/12/10 01:41:27;;;;;;;20.33;12.67;;;-1.30;99.90;;;;;;5053649;28;20781;-78
2022/12/10 01:44:02;;;;;;;19.17;11.43;;;-1.30;99.90;;;;;;5053510;28;20430;-78
2022/12/10 01:46:53;;;;;;;24.37;12.17;;;-1.30;99.90;;;;;;5053350;28;20417;-78
2022/12/10 01:49:22;;;;;;;19.47;10.73;;;-1.40;99.90;;;;;;5054344;28;20436;-78
2022/12/10 01:51:51;;;;;;;24.60;11.67;;;-1.40;99.90;;;;;;5054926;28;20515;-78
2022/12/10 01:54:29;;;;;;;36.10;11.83;;;-1.40;99.90;;;;;;5054333;28;20805;-78
2022/12/10 01:57:00;;;;;;;27.00;12.10;;;-1.40;99.90;;;;;;5053384;28;20943;-78
2022/12/10 01:59:27;;;;;;;25.43;14.37;;;-1.40;99.90;;;;;;5053123;28;20441;-78
2022/12/10 02:02:09;;;;;;;21.40;11.47;;;-1.40;99.90;;;;;;5054161;28;20974;-78
2022/12/10 02:04:53;;;;;;;24.97;11.67;;;-1.40;99.90;;;;;;5053305;28;20429;-78
2022/12/10 02:07:37;;;;;;;19.83;10.50;;;-1.40;99.90;;;;;;5052865;28;20449;-78
2022/12/10 02:10:19;;;;;;;27.90;13.30;;;-1.40;99.90;;;;;;5054133;28;20851;-78
2022/12/10 02:13:12;;;;;;;19.73;10.60;;;-1.40;99.90;;;;;;5053533;28;20909;-78
2022/12/10 02:15:51;;;;;;;23.20;11.87;;;-1.50;99.90;;;;;;5052209;28;20421;-78
2022/12/10 02:18:36;;;;;;;27.57;12.20;;;-1.50;99.90;;;;;;5052165;28;20820;-78
2022/12/10 02:21:08;;;;;;;21.87;10.60;;;-1.40;99.90;;;;;;5053458;28;20770;-78
2022/12/10 02:23:41;;;;;;;25.83;11.90;;;-1.30;99.90;;;;;;5054743;28;20528;-78
2022/12/10 02:26:23;;;;;;;21.83;11.07;;;-1.10;99.90;;;;;;5053250;28;20404;-78
2022/12/10 02:29:13;;;;;;;19.47;11.30;;;-1.00;99.90;;;;;;5054364;28;20406;-78
2022/12/10 02:31:47;;;;;;;20.33;12.50;;;-0.80;99.90;;;;;;5053008;28;20441;-79
2022/12/10 02:34:16;;;;;;;20.87;11.77;;;-0.60;99.90;;;;;;5053631;28;20436;-78
2022/12/10 02:36:45;;;;;;;26.53;12.27;;;-0.50;99.90;;;;;;5053070;28;20417;-78
2022/12/10 02:39:14;;;;;;;23.13;11.90;;;-0.30;99.90;;;;;;5054346;28;20457;-78
2022/12/10 02:41:48;;;;;;;21.60;10.13;;;-0.20;99.90;;;;;;5052975;28;20442;-78
2022/12/10 02:44:16;;;;;;;26.17;12.90;;;-0.10;99.90;;;;;;5053579;28;20795;-78
2022/12/10 02:46:44;;;;;;;22.17;10.97;;;0.00;99.90;;;;;;5053571;28;20416;-78
2022/12/10 02:49:13;;;;;;;24.57;11.40;;;0.00;99.90;;;;;;5053147;28;20493;-79
2022/12/10 02:51:39;;;;;;;53.60;26.30;;;0.10;99.90;;;;;;5054553;28;20406;-78
2022/12/10 02:54:26;;;;;;;21.37;11.90;;;0.20;99.90;;;;;;5053210;28;20497;-78
2022/12/10 02:56:59;;;;;;;24.40;13.00;;;0.30;99.90;;;;;;5054292;28;20206;-79
2022/12/10 02:59:33;;;;;;;22.20;12.20;;;0.30;99.90;;;;;;5053883;28;20459;-78
2022/12/10 03:02:06;;;;;;;22.90;13.13;;;0.30;99.90;;;;;;5053378;28;20420;-78
2022/12/10 03:04:52;;;;;;;15.73;11.10;;;0.40;99.90;;;;;;5053204;28;20414;-78
2022/12/10 03:07:28;;;;;;;20.17;13.70;;;0.40;99.90;;;;;;5053111;28;20805;-79
2022/12/10 03:10:01;;;;;;;30.40;12.70;;;0.50;99.90;;;;;;5054194;28;20499;-78
2022/12/10 03:12:37;;;;;;;19.20;12.43;;;0.40;99.90;;;;;;5054078;28;20397;-79
2022/12/10 03:15:08;;;;;;;26.23;13.70;;;0.50;99.90;;;;;;5053703;28;21029;-78
2022/12/10 03:17:36;;;;;;;33.57;12.93;;;0.50;99.90;;;;;;5053531;28;20471;-79
2022/12/10 03:20:03;;;;;;;18.17;11.97;;;0.60;99.90;;;;;;5053742;28;20449;-78
2022/12/10 03:22:30;;;;;;;25.37;13.80;;;0.70;99.90;;;;;;5053163;28;20446;-78
2022/12/10 03:24:57;;;;;;;28.40;13.80;;;0.70;99.90;;;;;;5054032;28;20405;-78
2022/12/10 03:27:23;;;;;;;25.50;12.93;;;0.80;99.90;;;;;;5053261;28;20460;-78
2022/12/10 03:29:51;;;;;;;32.53;15.27;;;0.90;99.90;;;;;;5052724;28;20401;-78
2022/12/10 03:32:20;;;;;;;28.67;15.77;;;0.90;99.90;;;;;;5054172;28;20469;-78
2022/12/10 03:34:47;;;;;;;28.90;13.93;;;1.00;99.90;;;;;;5053298;28;20421;-78
2022/12/10 03:37:13;;;;;;;35.27;16.13;;;1.10;99.90;;;;;;5054311;28;20393;-79
2022/12/10 03:39:41;;;;;;;25.13;14.43;;;1.10;99.90;;;;;;5052356;28;20816;-79
2022/12/10 03:42:07;;;;;;;34.03;14.10;;;1.10;99.90;;;;;;5053906;28;20401;-78
2022/12/10 03:44:35;;;;;;;29.43;16.20;;;1.10;99.90;;;;;;5052421;28;20794;-79
2022/12/10 03:47:02;;;;;;;33.43;15.77;;;1.10;99.90;;;;;;5053835;28;20740;-78
2022/12/10 03:49:28;;;;;;;25.90;14.03;;;1.10;99.90;;;;;;5053518;28;20401;-78
2022/12/10 03:51:54;;;;;;;44.10;25.20;;;1.10;99.90;;;;;;5053874;28;20405;-79
2022/12/10 03:54:20;;;;;;;29.60;15.37;;;1.20;99.90;;;;;;5053205;28;21065;-79
2022/12/10 03:56:46;;;;;;;27.97;13.27;;;1.20;99.90;;;;;;5053493;28;20171;-79
2022/12/10 03:59:12;;;;;;;31.37;16.40;;;1.30;99.90;;;;;;5054138;28;20452;-78
2022/12/10 04:01:38;;;;;;;28.70;12.90;;;1.30;99.90;;;;;;5053523;28;20171;-78
2022/12/10 04:04:04;;;;;;;37.67;17.77;;;1.40;99.90;;;;;;5052984;28;20773;-79
2022/12/10 04:06:30;;;;;;;28.20;17.60;;;1.40;99.90;;;;;;5054554;28;20156;-78
2022/12/10 04:08:56;;;;;;;33.77;17.10;;;1.30;99.90;;;;;;5053199;28;20957;-78
2022/12/10 04:11:22;;;;;;;24.43;16.07;;;1.40;99.90;;;;;;5053133;28;20178;-79
2022/12/10 04:16:33;;;;;;;24.70;14.20;;;1.50;99.90;;;;;;5056415;28;20430;-79
2022/12/10 04:19:07;;;;;;;24.43;14.27;;;1.60;99.90;;;;;;5057732;28;20478;-79
2022/12/10 04:27:21;;;;;;;31.63;15.03;;;1.70;99.90;;;;;;5056786;28;20377;-79
2022/12/10 04:29:47;;;;;;;24.63;13.80;;;1.70;99.90;;;;;;5055214;28;20409;-78
2022/12/10 04:32:12;;;;;;;35.20;14.80;;;1.70;99.90;;;;;;5056510;28;20417;-78
2022/12/10 04:34:38;;;;;;;40.93;15.80;;;1.60;99.90;;;;;;5055318;28;20190;-79
2022/12/10 04:37:04;;;;;;;29.20;15.63;;;1.60;99.90;;;;;;5056603;28;20167;-79
2022/12/10 04:39:30;;;;;;;30.80;16.13;;;1.70;99.90;;;;;;5055430;28;20202;-79
2022/12/10 04:41:56;;;;;;;30.70;14.37;;;1.60;99.90;;;;;;5055384;28;20437;-78
2022/12/10 04:44:22;;;;;;;31.10;15.53;;;1.70;99.90;;;;;;5054979;28;20436;-78
2022/12/10 04:46:48;;;;;;;29.00;13.80;;;1.80;99.90;;;;;;5056791;28;20756;-78
2022/12/10 04:49:14;;;;;;;24.87;15.83;;;1.80;99.90;;;;;;5054364;28;20534;-78
2022/12/10 04:51:40;;;;;;;27.57;13.00;;;1.70;99.90;;;;;;5055146;28;20824;-78
2022/12/10 04:54:06;;;;;;;30.23;14.87;;;1.70;99.90;;;;;;5055363;28;20512;-78
2022/12/10 04:56:32;;;;;;;22.63;13.30;;;1.60;99.90;;;;;;5056424;28;20419;-78
2022/12/10 04:58:59;;;;;;;27.57;12.87;;;1.50;99.90;;;;;;5055043;28;20461;-78
2022/12/10 05:01:24;;;;;;;28.03;14.60;;;1.50;99.90;;;;;;5056305;28;20404;-78
2022/12/10 05:03:50;;;;;;;20.63;10.20;;;1.60;99.90;;;;;;5055639;28;20436;-79
2022/12/10 05:06:17;;;;;;;25.43;14.10;;;1.50;99.90;;;;;;5056371;28;20685;-79
2022/12/10 05:08:43;;;;;;;20.93;10.10;;;1.40;99.90;;;;;;5055818;28;20228;-78
2022/12/10 05:11:14;;;;;;;18.70;10.77;;;1.40;99.90;;;;;;5055095;28;20416;-78
2022/12/10 05:13:40;;;;;;;18.47;11.27;;;1.40;99.90;;;;;;5056108;28;20420;-78
2022/12/10 05:16:09;;;;;;;24.93;12.63;;;1.40;99.90;;;;;;5054691;28;20408;-78
2022/12/10 05:18:35;;;;;;;19.07;10.80;;;1.40;99.90;;;;;;5054774;28;20494;-78
2022/12/10 05:21:03;;;;;;;17.77;10.90;;;1.50;99.90;;;;;;5055837;28;20778;-78
2022/12/10 05:23:28;;;;;;;21.13;13.07;;;1.50;99.90;;;;;;5055316;28;20437;-78
2022/12/10 05:26:07;;;;;;;18.67;10.77;;;1.40;99.90;;;;;;5055922;28;20401;-78
2022/12/10 05:28:41;;;;;;;18.10;11.30;;;1.30;99.90;;;;;;5054078;28;20175;-78
2022/12/10 05:31:16;;;;;;;16.63;10.40;;;1.30;99.90;;;;;;5055143;28;20433;-78
2022/12/10 05:33:41;;;;;;;19.57;9.57;;;1.30;99.90;;;;;;5055170;28;20784;-78
2022/12/10 05:36:09;;;;;;;18.03;10.20;;;1.30;99.90;;;;;;5055255;28;20425;-78
2022/12/10 05:38:34;;;;;;;21.07;11.13;;;1.40;99.90;;;;;;5056232;28;20189;-79
2022/12/10 05:41:05;;;;;;;20.87;10.83;;;1.40;99.90;;;;;;5057172;28;20451;-77
2022/12/10 05:43:30;;;;;;;20.40;11.30;;;1.40;99.90;;;;;;5055296;28;20194;-76
2022/12/10 05:46:06;;;;;;;18.47;10.90;;;1.40;99.90;;;;;;5055333;28;20438;-77
2022/12/10 05:48:33;;;;;;;18.40;9.33;;;1.40;99.90;;;;;;5057214;28;20405;-76
2022/12/10 05:51:07;;;;;;;21.00;10.67;;;1.40;99.90;;;;;;5056265;28;20423;-77
2022/12/10 05:53:32;;;;;;;24.03;10.77;;;1.40;99.90;;;;;;5054725;28;20807;-77
2022/12/10 05:56:03;;;;;;;26.33;11.90;;;1.30;99.90;;;;;;5055332;28;20417;-76
2022/12/10 05:58:29;;;;;;;21.17;11.57;;;1.40;99.90;;;;;;5056015;28;20200;-77
2022/12/10 06:00:56;;;;;;;29.53;12.07;;;1.50;99.90;;;;;;5055721;28;20846;-76
2022/12/10 06:03:22;;;;;;;21.37;11.57;;;1.40;99.90;;;;;;5055872;28;20189;-77
2022/12/10 06:05:47;;;;;;;18.13;10.30;;;1.40;99.90;;;;;;5055646;28;20405;-77
2022/12/10 06:08:13;;;;;;;23.00;12.83;;;1.30;99.90;;;;;;5055391;28;20178;-77
2022/12/10 06:10:38;;;;;;;16.60;10.53;;;1.30;99.90;;;;;;5054935;28;20163;-77
2022/12/10 06:13:04;;;;;;;19.07;11.77;;;1.30;99.90;;;;;;5055585;28;20680;-77
2022/12/10 06:15:31;;;;;;;19.47;10.77;;;1.40;99.90;;;;;;5054289;28;20194;-77
2022/12/10 06:17:57;;;;;;;22.60;11.00;;;1.40;99.90;;;;;;5054782;28;20204;-76
2022/12/10 06:20:24;;;;;;;23.50;11.47;;;1.50;99.90;;;;;;5054678;28;20463;-77
2022/12/10 06:22:50;;;;;;;21.83;11.73;;;1.50;99.90;;;;;;5053563;28;20217;-77
2022/12/10 06:25:16;;;;;;;22.57;10.97;;;1.50;99.90;;;;;;5054263;28;20397;-77
2022/12/10 06:27:41;;;;;;;17.73;10.83;;;1.50;99.90;;;;;;5053525;28;20175;-77
2022/12/10 06:30:08;;;;;;;22.07;10.60;;;1.50;99.90;;;;;;5052667;28;20436;-76
2022/12/10 06:32:33;;;;;;;20.00;10.30;;;1.50;99.90;;;;;;5053060;28;20208;-77
2022/12/10 06:34:59;;;;;;;21.33;11.37;;;1.40;99.90;;;;;;5054294;28;20405;-77
2022/12/10 06:37:24;;;;;;;24.87;12.63;;;1.30;99.90;;;;;;5053358;28;20179;-77
2022/12/10 06:39:52;;;;;;;23.87;11.90;;;1.40;99.90;;;;;;5053918;28;20199;-77
2022/12/10 06:42:17;;;;;;;30.90;13.73;;;1.40;99.90;;;;;;5054666;28;20312;-76
2022/12/10 06:44:43;;;;;;;23.63;13.23;;;1.40;99.90;;;;;;5052717;28;20878;-77
2022/12/10 06:47:08;;;;;;;21.73;12.47;;;1.40;99.90;;;;;;5055008;28;20407;-77
2022/12/10 06:49:34;;;;;;;23.60;13.13;;;1.30;99.90;;;;;;5053956;28;20174;-77
2022/12/10 06:52:00;;;;;;;24.63;13.60;;;1.30;99.90;;;;;;5054888;28;20219;-76
2022/12/10 06:54:26;;;;;;;25.23;14.00;;;1.30;99.90;;;;;;5054803;28;20520;-77
2022/12/10 06:56:51;;;;;;;20.60;11.00;;;1.30;99.90;;;;;;5055682;28;20432;-77
2022/12/10 06:59:17;;;;;;;22.80;11.83;;;1.30;99.90;;;;;;5055222;28;20263;-77
2022/12/10 07:01:42;;;;;;;31.53;13.00;;;1.40;99.90;;;;;;5055035;28;20211;-77
2022/12/10 07:04:09;;;;;;;27.63;13.70;;;1.40;99.90;;;;;;5055306;28;20185;-76
2022/12/10 07:06:34;;;;;;;25.90;11.67;;;1.40;99.90;;;;;;5054073;28;20179;-77
2022/12/10 07:09:00;;;;;;;22.30;14.23;;;1.40;99.90;;;;;;5053910;28;20505;-77
2022/12/10 07:11:25;;;;;;;27.23;13.23;;;1.30;99.90;;;;;;5050620;28;20182;-77
2022/12/10 07:13:51;;;;;;;28.13;14.10;;;1.30;99.90;;;;;;5052763;28;20197;-78
2022/12/10 07:16:20;;;;;;;31.13;14.70;;;1.30;99.90;;;;;;5054831;28;20182;-78
2022/12/10 07:18:47;;;;;;;34.27;15.53;;;1.30;99.90;;;;;;5054393;28;20453;-78
2022/12/10 07:21:41;;;;;;;30.17;14.30;;;1.20;99.90;;;;;;5053911;28;20410;-77
2022/12/10 07:24:10;;;;;;;29.30;13.90;;;1.20;99.90;;;;;;5051504;28;20505;-77
2022/12/10 07:26:38;;;;;;;27.80;14.53;;;1.20;99.90;;;;;;5055330;28;20415;-78
2022/12/10 07:29:05;;;;;;;28.70;16.73;;;1.10;99.90;;;;;;5052857;28;20424;-78
2022/12/10 07:31:31;;;;;;;34.70;15.60;;;1.00;99.90;;;;;;5054023;28;20932;-78
2022/12/10 07:33:58;;;;;;;35.43;17.07;;;1.00;99.90;;;;;;5053103;28;20455;-78
2022/12/10 07:36:24;;;;;;;37.30;17.80;;;0.90;99.90;;;;;;5054134;28;20260;-78
2022/12/10 07:38:51;;;;;;;42.63;17.43;;;0.90;99.90;;;;;;5053979;28;20455;-78
2022/12/10 07:41:17;;;;;;;25.70;14.80;;;0.80;99.90;;;;;;5054717;28;20776;-77
2022/12/10 07:43:44;;;;;;;34.60;13.80;;;0.80;99.90;;;;;;5052836;28;20448;-78
2022/12/10 07:46:22;;;;;;;28.60;14.47;;;0.80;99.90;;;;;;5053741;28;20169;-79
2022/12/10 07:48:48;;;;;;;40.97;15.20;;;0.80;99.90;;;;;;5054445;28;20403;-78
2022/12/10 07:51:15;;;;;;;38.83;16.80;;;0.80;99.90;;;;;;5056582;28;20420;-77
2022/12/10 07:53:41;;;;;;;31.30;16.80;;;0.90;99.90;;;;;;5059020;28;20458;-77
2022/12/10 07:56:07;;;;;;;42.93;16.10;;;0.90;99.90;;;;;;5057586;28;20405;-77
2022/12/10 07:58:33;;;;;;;32.80;18.10;;;1.00;99.90;;;;;;5056865;28;20817;-76
2022/12/10 08:00:58;;;;;;;34.30;18.30;;;1.00;99.90;;;;;;5057368;28;20593;-77
2022/12/10 08:03:24;;;;;;;38.23;16.60;;;1.10;99.90;;;;;;5056212;28;20460;-76
2022/12/10 08:06:04;;;;;;;46.67;19.47;;;1.10;99.90;;;;;;5057115;28;20652;-77
2022/12/10 08:08:29;;;;;;;39.50;16.47;;;1.20;99.90;;;;;;5059112;28;20182;-77
2022/12/10 08:10:59;;;;;;;32.20;16.70;;;1.30;99.90;;;;;;5060134;28;20412;-77
2022/12/10 08:13:24;;;;;;;43.57;17.73;;;1.40;99.90;;;;;;5058024;28;20331;-76
2022/12/10 08:15:50;;;;;;;50.70;16.00;;;1.50;99.90;;;;;;5057360;28;20513;-77
2022/12/10 08:18:15;;;;;;;32.90;18.20;;;1.60;99.90;;;;;;5057626;28;20189;-77
2022/12/10 08:20:40;;;;;;;36.20;16.63;;;1.60;99.90;;;;;;5053733;28;20174;-78
2022/12/10 08:23:06;;;;;;;46.30;19.33;;;1.70;99.90;;;;;;5056150;28;20455;-77
2022/12/10 08:25:31;;;;;;;40.20;15.03;;;1.80;99.90;;;;;;5056297;28;20300;-78
2022/12/10 08:27:59;;;;;;;34.63;17.83;;;1.80;99.90;;;;;;5058569;28;20297;-77
2022/12/10 08:30:25;;;;;;;42.77;18.70;;;1.80;99.90;;;;;;5055915;28;20191;-78
2022/12/10 08:32:50;;;;;;;43.37;19.50;;;1.70;99.90;;;;;;5056208;28;20441;-77
2022/12/10 08:35:16;;;;;;;34.77;16.43;;;1.60;99.90;;;;;;5054279;28;20229;-77
2022/12/10 08:37:42;;;;;;;39.73;18.43;;;1.50;99.90;;;;;;5054520;28;20564;-77
2022/12/10 08:40:08;;;;;;;43.53;17.17;;;1.60;99.90;;;;;;5055668;28;20197;-76
2022/12/10 08:42:33;;;;;;;47.73;17.90;;;1.60;99.90;;;;;;5057135;28;20169;-77
2022/12/10 08:44:59;;;;;;;35.53;16.53;;;1.70;99.90;;;;;;5057001;28;20917;-77
2022/12/10 08:47:24;;;;;;;41.37;17.50;;;1.80;99.90;;;;;;5056342;28;20206;-79
2022/12/10 08:49:50;;;;;;;29.30;15.77;;;1.80;99.90;;;;;;5054659;28;20533;-75
2022/12/10 08:52:15;;;;;;;35.53;16.60;;;1.80;99.90;;;;;;5054317;28;20171;-76
2022/12/10 08:54:41;;;;;;;39.30;16.77;;;1.80;99.90;;;;;;5054775;28;20190;-77
2022/12/10 08:57:06;;;;;;;33.67;16.03;;;2.00;99.90;;;;;;5055174;28;20179;-75
2022/12/10 08:59:32;;;;;;;50.93;21.03;;;2.00;99.90;;;;;;5053317;28;20241;-77
2022/12/10 09:01:57;;;;;;;46.57;18.53;;;1.80;99.90;;;;;;5052499;28;20269;-79
2022/12/10 09:04:23;;;;;;;34.43;16.60;;;2.00;99.90;;;;;;5053101;28;20190;-78
2022/12/10 09:06:48;;;;;;;31.70;14.30;;;2.40;99.90;;;;;;5054611;28;20167;-78
2022/12/10 09:09:14;;;;;;;32.50;16.80;;;2.70;99.90;;;;;;5056157;28;20302;-79
2022/12/10 09:11:40;;;;;;;38.90;19.07;;;3.00;99.90;;;;;;5055219;28;20175;-78
2022/12/10 09:14:05;;;;;;;43.97;17.20;;;3.00;99.90;;;;;;5055343;28;20198;-78
2022/12/10 09:16:33;;;;;;;34.47;16.40;;;3.20;99.90;;;;;;5055183;28;20648;-78
2022/12/10 09:19:00;;;;;;;35.30;16.90;;;3.30;99.90;;;;;;5055202;28;20202;-77
2022/12/10 09:21:26;;;;;;;32.23;15.50;;;3.30;99.90;;;;;;5054588;28;20416;-77
2022/12/10 09:23:52;;;;;;;34.47;17.20;;;3.40;99.90;;;;;;5054095;28;20786;-78
2022/12/10 09:26:19;;;;;;;35.37;16.20;;;3.30;99.90;;;;;;5053609;28;20456;-79
2022/12/10 09:28:46;;;;;;;36.20;16.93;;;3.40;99.90;;;;;;5053710;28;20409;-79
2022/12/10 09:32:05;;;;;;;28.27;14.60;;;3.40;99.90;;;;;;5053821;28;20461;-79
2022/12/10 09:34:52;;;;;;;35.97;16.60;;;3.50;99.90;;;;;;5040402;28;20434;-79
2022/12/10 09:37:48;;;;;;;39.40;18.17;;;3.30;99.90;;;;;;5050267;28;20406;-79
2022/12/10 09:40:41;;;;;;;29.57;16.37;;;3.30;99.90;;;;;;5053104;28;20464;-80
2022/12/10 09:43:47;;;;;;;41.17;17.67;;;3.40;99.90;;;;;;5057473;28;20555;-77
2022/12/10 09:46:28;;;;;;;27.60;15.10;;;3.50;99.90;;;;;;5056506;28;20787;-80
2022/12/10 09:49:37;;;;;;;32.70;15.10;;;3.50;99.90;;;;;;5059666;28;20416;-79
2022/12/10 09:52:10;;;;;;;41.93;16.63;;;3.60;99.90;;;;;;5056572;28;20421;-80
2022/12/10 09:54:47;;;;;;;36.43;16.07;;;3.60;99.90;;;;;;5054983;28;20487;-78
2022/12/10 09:57:30;;;;;;;35.80;15.80;;;3.60;99.90;;;;;;5059249;28;20917;-80
2022/12/10 09:59:58;;;;;;;31.70;13.77;;;3.70;99.90;;;;;;5057690;28;20453;-79
2022/12/10 10:02:27;;;;;;;40.93;17.90;;;3.80;99.90;;;;;;5057118;28;20763;-79
2022/12/10 10:05:11;;;;;;;29.53;14.57;;;3.80;99.90;;;;;;5056117;28;20955;-79
2022/12/10 10:07:44;;;;;;;33.90;16.23;;;3.80;99.90;;;;;;5056336;28;20413;-80
2022/12/10 10:10:24;;;;;;;30.70;14.80;;;3.60;99.90;;;;;;5058406;28;20768;-80
2022/12/10 10:12:56;;;;;;;31.50;15.50;;;3.60;99.90;;;;;;5057794;28;20428;-80
2022/12/10 10:15:29;;;;;;;34.07;15.27;;;3.50;99.90;;;;;;5055948;28;20475;-79
2022/12/10 10:18:01;;;;;;;31.90;15.20;;;3.60;99.90;;;;;;5054505;28;20497;-79
2022/12/10 10:20:26;;;;;;;31.73;14.53;;;3.60;99.90;;;;;;5054278;28;20746;-80
2022/12/10 10:22:56;;;;;;;31.27;15.60;;;3.40;99.90;;;;;;5053448;28;20512;-78
2022/12/10 10:25:21;;;;;;;36.40;14.17;;;3.60;99.90;;;;;;5053262;28;20529;-79
2022/12/10 10:27:47;;;;;;;34.10;17.10;;;3.70;99.90;;;;;;5053839;28;20409;-79
2022/12/10 10:30:22;;;;;;;30.03;17.13;;;3.90;99.90;;;;;;5057256;28;20636;-79
2022/12/10 10:32:53;;;;;;;29.53;13.23;;;4.10;99.90;;;;;;5058829;28;20254;-80
2022/12/10 10:35:23;;;;;;;29.83;13.33;;;4.20;99.90;;;;;;5058793;28;20531;-79
2022/12/10 10:37:49;;;;;;;32.97;16.50;;;4.40;99.90;;;;;;5053641;28;20850;-79
2022/12/10 10:40:24;;;;;;;30.50;13.50;;;4.20;99.90;;;;;;5053270;28;20467;-78
2022/12/10 10:42:54;;;;;;;30.50;14.77;;;4.20;99.90;;;;;;5051856;28;20428;-78
2022/12/10 10:45:39;;;;;;;31.37;15.10;;;4.20;99.90;;;;;;5052113;28;20459;-81
2022/12/10 10:48:17;;;;;;;31.13;14.53;;;4.40;99.90;;;;;;5051793;28;20407;-78
2022/12/10 10:51:22;;;;;;;30.07;14.73;;;4.70;99.90;;;;;;5051803;28;20838;-81
2022/12/10 10:53:51;;;;;;;32.00;15.43;;;4.90;99.90;;;;;;5041221;28;20464;-79
2022/12/10 10:56:41;;;;;;;29.23;14.23;;;5.00;99.90;;;;;;5051049;28;20496;-79
2022/12/10 10:59:15;;;;;;;31.70;15.30;;;5.10;99.90;;;;;;5051191;28;20445;-78
2022/12/10 11:01:52;;;;;;;26.10;15.20;;;5.20;99.90;;;;;;5052425;28;20456;-79
2022/12/10 11:04:28;;;;;;;28.47;13.00;;;5.20;99.90;;;;;;5050904;28;20801;-79
2022/12/10 11:06:59;;;;;;;26.43;12.97;;;5.30;99.90;;;;;;5053054;28;20393;-81
2022/12/10 11:09:28;;;;;;;28.30;13.50;;;5.20;99.90;;;;;;5054000;28;20437;-80
2022/12/10 11:12:06;;;;;;;25.70;13.30;;;5.30;99.90;;;;;;5053160;28;20421;-81
2022/12/10 11:14:40;;;;;;;28.97;14.27;;;5.30;99.90;;;;;;5052115;28;20528;-80
2022/12/10 11:17:27;;;;;;;28.07;14.43;;;5.30;99.90;;;;;;5052244;28;20416;-81
2022/12/10 11:19:57;;;;;;;25.33;11.87;;;5.20;99.90;;;;;;5051414;28;20492;-80
2022/12/10 11:22:27;;;;;;;29.37;12.90;;;5.30;99.90;;;;;;5053175;28;20421;-79
2022/12/10 11:24:52;;;;;;;26.13;12.43;;;5.20;99.90;;;;;;5053362;28;20425;-82
2022/12/10 11:27:41;;;;;;;28.60;13.50;;;5.20;99.90;;;;;;5059250;28;20451;-79
2022/12/10 11:30:09;;;;;;;26.10;12.80;;;5.20;99.90;;;;;;5051572;28;20196;-78
2022/12/10 11:32:54;;;;;;;20.57;11.87;;;5.20;99.90;;;;;;5059204;28;20842;-80
2022/12/10 11:35:31;;;;;;;31.57;13.60;;;5.20;99.90;;;;;;5065130;28;20417;-80
2022/12/10 11:38:44;;;;;;;45.87;25.40;;;5.20;99.90;;;;;;5063339;28;20420;-80
2022/12/10 11:41:32;;;;;;;29.07;12.27;;;5.10;99.90;;;;;;5054526;28;20827;-80
2022/12/10 11:44:22;;;;;;;26.77;13.03;;;5.00;99.90;;;;;;5063169;28;20472;-79
2022/12/10 11:47:05;;;;;;;27.00;12.80;;;4.90;99.90;;;;;;5064667;28;20404;-79
2022/12/10 11:50:08;;;;;;;28.23;13.70;;;4.80;99.90;;;;;;5062761;28;20772;-80
2022/12/10 11:52:47;;;;;;;19.10;11.50;;;4.80;99.90;;;;;;5064123;28;20397;-80
2022/12/10 11:55:31;;;;;;;28.53;12.87;;;4.80;99.90;;;;;;5063082;28;20409;-80
2022/12/10 11:58:24;;;;;;;27.70;13.33;;;4.60;99.90;;;;;;5063795;28;20409;-80
2022/12/10 12:01:08;;;;;;;24.80;12.07;;;4.60;99.90;;;;;;5063137;28;20875;-80
2022/12/10 12:03:33;;;;;;;22.70;11.20;;;4.60;99.90;;;;;;5064646;28;20421;-79
2022/12/10 12:06:17;;;;;;;21.00;12.47;;;4.50;99.90;;;;;;5062692;28;20539;-80
2022/12/10 12:09:08;;;;;;;22.83;13.37;;;4.60;99.90;;;;;;5063643;28;20174;-80
2022/12/10 12:11:54;;;;;;;24.77;12.57;;;4.00;99.90;;;;;;5062580;28;20417;-80
2022/12/10 12:14:50;;;;;;;22.83;13.27;;;4.00;99.90;;;;;;5063227;28;20417;-79
2022/12/10 12:17:18;;;;;;;26.93;12.67;;;4.00;99.90;;;;;;5060885;28;20414;-80
2022/12/10 12:19:48;;;;;;;27.43;12.13;;;3.70;99.90;;;;;;5062741;28;20459;-80
2022/12/10 12:22:23;;;;;;;29.13;13.60;;;3.60;99.90;;;;;;5062669;28;20429;-79
2022/12/10 12:24:51;;;;;;;24.50;12.07;;;3.70;99.90;;;;;;5062137;28;20440;-79
2022/12/10 12:27:46;;;;;;;25.73;12.27;;;3.60;99.90;;;;;;5063205;28;20826;-79
2022/12/10 12:30:17;;;;;;;31.93;12.77;;;3.70;99.90;;;;;;5059534;28;20409;-79
2022/12/10 12:33:04;;;;;;;25.43;11.50;;;3.80;99.90;;;;;;5060918;28;20440;-80
2022/12/10 12:35:41;;;;;;;25.03;12.83;;;4.00;99.90;;;;;;5062483;28;20413;-80
2022/12/10 12:38:26;;;;;;;23.17;12.37;;;4.10;99.90;;;;;;5060682;28;20824;-79
2022/12/10 12:41:09;;;;;;;25.97;12.57;;;4.10;99.90;;;;;;5061125;28;20508;-80
2022/12/10 12:43:59;;;;;;;24.40;12.83;;;4.20;99.90;;;;;;5061240;28;20430;-79
2022/12/10 12:46:43;;;;;;;24.23;13.00;;;4.30;99.90;;;;;;5060667;28;20417;-79
2022/12/10 12:49:39;;;;;;;26.40;11.73;;;4.30;99.90;;;;;;5060769;28;20858;-79
2022/12/10 12:52:46;;;;;;;30.33;14.10;;;4.30;99.90;;;;;;5057662;28;20421;-79
2022/12/10 12:55:21;;;;;;;33.33;15.90;;;4.10;99.90;;;;;;5063255;28;20427;-80
2022/12/10 12:57:56;;;;;;;33.97;13.87;;;4.00;99.90;;;;;;5062334;28;20780;-79
2022/12/10 13:00:23;;;;;;;24.57;13.13;;;4.00;99.90;;;;;;5060182;28;20464;-78
2022/12/10 13:03:27;;;;;;;21.57;11.80;;;4.00;99.90;;;;;;5061335;28;20416;-79
2022/12/10 13:05:52;;;;;;;21.90;11.07;;;4.00;99.90;;;;;;5061320;28;20496;-80